Lancaster Airport
KLNS : now visible

Airfield :











YOU CAN JOIN US ON...

 
LOGIN :

Register | Disclaimer

   EN    FR    IT 

 









Legend :    VFR   Marginal VFR   IFR   Intensive IFR   Very Intensive IFR
Visi :
Ceiling :
>= 8 km
>= 3000ft
5 to 8 km
1000 to 3000 ft
1500m to 5 km
500 to 1000 ft
800 to 1500m
200 to 500 ft
< 800m
< 200 ft
Symbols :   Thunderstorms  Fog  Heavy snow  Heavy precipitations  Wind > 20 kt






- Airport Elevation : 403 ft
- IATA code : LNS


KLNS - Lancaster

CURRENT METAR :
  • 251053Z 09012KT 3SM +RA BR FEW009 BKN013 OVC018 06/04 A2994 RMK AO2 SLP141 P0037 T00560039

EXPIRED METARs :
  • 251031Z AUTO 09011G20KT 2 1/2SM +RA BR BKN009 BKN014 OVC028 06/04 A2995 RMK AO2 P0023 T00610039
  • 251014Z AUTO 09011G22KT 3SM +RA BR SCT008 BKN014 OVC029 06/04 A2995 RMK AO2 P0010 T00560039
  • 251001Z AUTO 09017G25KT 3SM +RA BR FEW008 SCT012 OVC030 06/04 A2993 RMK AO2 P0004 T00560039
  • 250953Z AUTO 09018G23KT 3SM +RA BR FEW008 BKN018 OVC032 06/03 A2994 RMK AO2 SLP139 P0024 T00560033
  • 250853Z AUTO 08014KT 4SM +RA OVC013 06/03 A2998 RMK AO2 RAB0759 SLP154 P0004 60004 T00560028 56029
  • 250824Z AUTO 09015KT 7SM -RA SCT017 OVC029 06/02 A2999 RMK AO2 RAB0759 P0000 T00560022
  • 250753Z AUTO 09013G21KT 9SM OVC031 06/02 A3001 RMK AO2 SLP164 T00560017

TAF KLNS
Valid from the 25 at 10:00 until the 26 at 06:00 UTC


250932Z 2510/2606 08010KT 3SM RA BR OVC015 WS020/13045KT
FM251100 07008KT 2SM +RA OVC010 WS020/13045KT
FM251600 36005KT 3SM -RA OVC007
FM251800 29005KT 6SM -RA OVC025
FM252100 30007KT P6SM BKN050



MET'MAP, your aeronautical weather chart ! - Copyright ORBIFLY December 2007 - Disclaimer

ORBIFLY MET'MAP TEAM :

Programming & Development : Alexandra Zaïnal
Concept & original design : Baudouin d'Aumeries
Assistance for programming : Marc-Olivier Méhu
Technical & hardware support : Manuel Goepfert

Contact : metmap@orbifly.com




SOURCES & CREDITS :

   NOAA       Earth
Advisory